Time;durP1;ratioP1;P1;durP2;ratioP2;P2;SDS_P1;SDS_P2;PMS_P1;PMS_P2;Temp;Humidity;BMP_temperature;BMP_pressure;BME280_temperature;BME280_humidity;BME280_pressure;Samples;Min_cycle;Max_cycle;Signal;HPM_P1;HPM_P2
2023/01/15 00:01:23;;;;;;;50.13;37.88;;;27.20;99.90;;;;;;5013294;28;20030;-67
2023/01/15 00:03:50;;;;;;;52.10;35.40;;;27.20;99.90;;;;;;5013476;28;20030;-67
2023/01/15 00:06:18;;;;;;;114.90;100.07;;;27.10;99.90;;;;;;5013484;28;20019;-67
2023/01/15 00:08:44;;;;;;;76.07;62.40;;;27.10;99.90;;;;;;5013237;28;20076;-67
2023/01/15 00:11:11;;;;;;;62.90;50.03;;;27.20;99.90;;;;;;5013387;28;20037;-67
2023/01/15 00:13:38;;;;;;;64.20;50.10;;;27.20;99.90;;;;;;5013388;28;20032;-67
2023/01/15 00:16:11;;;;;;;44.30;33.45;;;27.10;99.90;;;;;;5013259;28;20113;-67
2023/01/15 00:18:38;;;;;;;34.03;23.08;;;27.00;99.90;;;;;;5013695;28;20026;-66
2023/01/15 00:21:07;;;;;;;32.92;25.92;;;27.00;99.90;;;;;;5017768;28;20026;-67
2023/01/15 00:28:32;;;;;;;56.65;41.83;;;27.00;99.90;;;;;;5028930;28;20105;-67
2023/01/15 00:30:59;;;;;;;50.67;35.05;;;27.20;99.90;;;;;;5017058;28;20026;-66
2023/01/15 00:33:26;;;;;;;56.28;36.05;;;27.30;99.90;;;;;;5017600;28;20394;-67
2023/01/15 00:35:52;;;;;;;56.53;36.45;;;27.30;99.90;;;;;;5017146;28;20018;-66
2023/01/15 00:38:20;;;;;;;73.13;47.50;;;27.40;99.90;;;;;;5016948;28;20053;-66
2023/01/15 00:40:51;;;;;;;66.20;41.22;;;27.40;99.90;;;;;;5017261;28;20466;-65
2023/01/15 00:43:18;;;;;;;36.80;21.05;;;27.50;99.90;;;;;;5017585;28;20071;-65
2023/01/15 00:45:44;;;;;;;29.23;18.58;;;27.40;99.90;;;;;;5017661;28;20558;-65
2023/01/15 00:48:11;;;;;;;31.60;19.75;;;27.30;99.90;;;;;;5017660;28;20029;-65
2023/01/15 00:50:37;;;;;;;26.17;17.02;;;27.40;99.90;;;;;;5019063;28;20104;-66
2023/01/15 00:53:04;;;;;;;26.13;18.42;;;27.40;99.90;;;;;;5019486;28;20029;-65
2023/01/15 00:55:30;;;;;;;30.95;22.55;;;27.50;99.90;;;;;;5019714;28;20108;-65
2023/01/15 00:57:57;;;;;;;36.53;26.98;;;27.50;99.90;;;;;;5021952;28;20034;-65
2023/01/15 01:00:23;;;;;;;31.20;22.95;;;27.50;99.90;;;;;;5027980;28;20387;-66
2023/01/15 01:02:50;;;;;;;30.60;19.83;;;27.50;99.90;;;;;;5018344;28;20406;-68
2023/01/15 01:05:16;;;;;;;27.65;18.73;;;27.50;99.90;;;;;;5037524;28;20425;-67
2023/01/15 01:07:43;;;;;;;25.27;18.70;;;27.50;99.90;;;;;;5037580;28;20060;-67
2023/01/15 01:10:10;;;;;;;21.20;16.80;;;27.50;99.90;;;;;;5037786;28;20367;-67
2023/01/15 01:12:36;;;;;;;25.80;19.60;;;27.50;99.90;;;;;;5037721;28;20390;-69
2023/01/15 01:15:03;;;;;;;30.98;21.17;;;27.50;99.90;;;;;;5033448;28;20579;-66
2023/01/15 01:17:30;;;;;;;30.15;21.83;;;27.50;99.90;;;;;;5033220;28;20029;-66
2023/01/15 01:19:56;;;;;;;28.40;19.73;;;27.50;99.90;;;;;;5025842;28;20368;-65
2023/01/15 01:22:23;;;;;;;24.38;19.38;;;27.60;99.90;;;;;;5027056;28;20037;-66
2023/01/15 01:24:49;;;;;;;26.23;19.15;;;27.60;99.90;;;;;;5026853;28;20218;-65
2023/01/15 01:27:17;;;;;;;33.88;20.58;;;27.60;99.90;;;;;;5025762;28;20483;-66
2023/01/15 01:29:44;;;;;;;29.02;22.17;;;27.60;99.90;;;;;;5031760;28;20029;-66
2023/01/15 01:32:12;;;;;;;26.67;19.05;;;27.60;99.90;;;;;;5032786;28;20029;-66
2023/01/15 01:34:38;;;;;;;29.35;20.63;;;27.70;99.90;;;;;;5030656;28;20025;-66
2023/01/15 01:37:05;;;;;;;24.15;18.67;;;27.70;99.90;;;;;;5027348;28;20113;-66
2023/01/15 01:39:31;;;;;;;28.60;19.05;;;27.80;99.90;;;;;;5026872;28;20041;-65
2023/01/15 01:41:58;;;;;;;21.42;17.90;;;27.80;99.90;;;;;;5028702;28;20025;-66
2023/01/15 01:44:30;;;;;;;28.98;21.73;;;27.80;99.90;;;;;;5026894;28;20088;-67
2023/01/15 01:46:56;;;;;;;31.85;23.35;;;27.90;99.90;;;;;;5026639;28;20025;-65
2023/01/15 01:49:24;;;;;;;28.52;18.00;;;27.90;99.90;;;;;;5028287;28;20033;-65
2023/01/15 01:51:58;;;;;;;26.88;20.85;;;27.90;99.90;;;;;;5029012;28;20022;-65
2023/01/15 01:54:27;;;;;;;21.77;16.80;;;28.00;99.90;;;;;;5028504;28;20030;-66
2023/01/15 01:56:54;;;;;;;21.40;17.60;;;28.00;99.90;;;;;;5028925;28;20386;-66
2023/01/15 01:59:23;;;;;;;25.48;19.42;;;28.00;99.90;;;;;;5028449;28;20166;-66
2023/01/15 02:01:51;;;;;;;27.20;19.17;;;28.10;99.90;;;;;;5021154;28;20025;-65
2023/01/15 02:04:20;;;;;;;32.38;20.27;;;28.10;99.90;;;;;;5020168;28;20017;-65
2023/01/15 02:06:47;;;;;;;29.30;21.23;;;28.20;99.90;;;;;;5020111;28;20018;-65
2023/01/15 02:09:13;;;;;;;25.13;20.38;;;28.20;99.90;;;;;;5020090;28;20030;-65
2023/01/15 02:11:41;;;;;;;26.73;19.83;;;28.30;99.90;;;;;;5022753;28;20021;-67
2023/01/15 02:14:16;;;;;;;25.80;19.70;;;28.40;99.90;;;;;;5022290;28;20049;-65
2023/01/15 02:17:02;;;;;;;34.65;21.60;;;28.40;99.90;;;;;;5027549;28;20096;-67
2023/01/15 02:19:30;;;;;;;27.45;22.83;;;28.40;99.90;;;;;;5011783;28;20065;-63
2023/01/15 02:22:04;;;;;;;26.52;20.20;;;28.50;99.90;;;;;;5027917;28;20387;-66
2023/01/15 02:24:39;;;;;;;26.13;20.92;;;28.40;99.90;;;;;;5019739;28;20014;-66
2023/01/15 02:27:11;;;;;;;29.33;22.15;;;28.50;99.90;;;;;;5027848;28;20021;-67
2023/01/15 02:29:42;;;;;;;25.87;21.37;;;28.50;99.90;;;;;;5028042;28;20467;-65
2023/01/15 02:32:14;;;;;;;28.35;21.17;;;28.50;99.90;;;;;;5020014;28;20034;-67
2023/01/15 02:34:48;;;;;;;30.02;22.45;;;28.50;99.90;;;;;;5020632;28;20017;-67
2023/01/15 02:37:22;;;;;;;31.42;23.48;;;28.60;99.90;;;;;;5019703;28;20040;-65
2023/01/15 02:39:50;;;;;;;32.08;21.52;;;28.60;99.90;;;;;;5019571;28;20049;-65
2023/01/15 02:42:18;;;;;;;32.95;22.95;;;28.60;99.90;;;;;;5019118;28;20030;-64
2023/01/15 02:44:49;;;;;;;35.92;25.88;;;28.60;99.90;;;;;;5027413;28;20076;-66
2023/01/15 02:47:21;;;;;;;29.33;21.95;;;28.60;99.90;;;;;;5027737;28;20028;-65
2023/01/15 02:49:49;;;;;;;27.95;20.48;;;28.60;99.90;;;;;;5022459;28;20018;-64
2023/01/15 02:52:24;;;;;;;28.50;19.52;;;28.70;99.90;;;;;;5027819;28;20482;-65
2023/01/15 02:54:59;;;;;;;25.95;16.05;;;28.80;99.90;;;;;;5016275;28;20084;-66
2023/01/15 02:57:29;;;;;;;23.00;17.33;;;28.80;99.90;;;;;;5023064;28;20545;-65
2023/01/15 02:59:58;;;;;;;32.42;21.42;;;28.90;99.90;;;;;;5023977;28;20502;-65
2023/01/15 03:02:30;;;;;;;50.72;38.90;;;28.90;99.90;;;;;;5024718;28;20013;-65
2023/01/15 03:05:01;;;;;;;34.83;23.67;;;29.00;99.90;;;;;;5029097;28;20121;-65
2023/01/15 03:07:34;;;;;;;23.75;16.52;;;29.10;99.90;;;;;;5022322;28;20386;-64
2023/01/15 03:10:02;;;;;;;32.78;23.35;;;29.10;99.90;;;;;;5014370;28;20105;-63
2023/01/15 03:16:33;;;;;;;22.85;15.10;;;29.20;99.90;;;;;;4997847;28;20110;-64
2023/01/15 03:18:10;;;;;;;20.65;12.02;;;29.30;99.90;;;;;;5020711;28;20438;-65
2023/01/15 03:20:41;;;;;;;16.73;11.98;;;29.50;99.90;;;;;;5024751;28;20105;-66
2023/01/15 03:23:10;;;;;;;21.75;14.05;;;29.60;99.90;;;;;;5025151;28;20041;-65
2023/01/15 03:25:44;;;;;;;23.55;14.73;;;29.70;99.90;;;;;;5024314;28;20026;-63
2023/01/15 03:28:13;;;;;;;15.80;11.32;;;29.70;99.90;;;;;;5023146;28;20105;-65
2023/01/15 03:30:40;;;;;;;19.40;12.48;;;29.70;99.90;;;;;;5022993;28;20358;-66
2023/01/15 03:33:10;;;;;;;17.25;11.77;;;29.80;99.90;;;;;;5024530;28;20463;-66
2023/01/15 03:35:42;;;;;;;47.47;35.28;;;29.90;99.90;;;;;;5023611;28;20030;-66
2023/01/15 03:38:09;;;;;;;21.88;12.70;;;29.90;99.90;;;;;;5022127;28;20022;-64
2023/01/15 03:40:41;;;;;;;13.52;9.25;;;29.90;99.90;;;;;;5023242;28;20032;-65
2023/01/15 03:45:44;;;;;;;14.10;11.15;;;29.90;99.90;;;;;;5023956;28;20105;-64
2023/01/15 03:48:30;;;;;;;13.25;9.73;;;29.90;99.90;;;;;;5022560;28;20026;-64
2023/01/15 03:51:07;;;;;;;16.38;9.75;;;29.90;99.90;;;;;;5022860;28;20018;-67
2023/01/15 03:53:44;;;;;;;12.90;9.88;;;30.00;99.90;;;;;;5029350;28;20530;-66
2023/01/15 03:56:18;;;;;;;14.27;9.23;;;30.00;99.90;;;;;;5022690;28;20022;-67
2023/01/15 03:58:50;;;;;;;13.38;8.80;;;30.00;99.90;;;;;;5021587;28;20129;-65
2023/01/15 04:01:20;;;;;;;13.70;9.07;;;30.00;99.90;;;;;;5027153;28;20362;-66
2023/01/15 04:03:48;;;;;;;11.23;8.73;;;30.00;99.90;;;;;;5030153;28;20405;-66
2023/01/15 04:06:16;;;;;;;20.73;10.65;;;30.00;99.90;;;;;;5024762;28;20084;-67
2023/01/15 04:08:44;;;;;;;16.65;9.25;;;30.10;99.90;;;;;;5021877;28;20429;-67
2023/01/15 04:11:11;;;;;;;18.02;10.07;;;30.10;99.90;;;;;;5019863;28;20025;-67
2023/01/15 04:13:37;;;;;;;13.88;8.38;;;30.10;99.90;;;;;;5023041;28;20459;-64
2023/01/15 04:16:04;;;;;;;15.45;13.02;;;30.10;99.90;;;;;;5021663;28;20030;-67
2023/01/15 04:18:30;;;;;;;27.00;20.38;;;30.00;99.90;;;;;;5023551;28;20049;-66
2023/01/15 04:20:57;;;;;;;32.30;20.90;;;29.80;99.90;;;;;;5023218;28;20046;-67
2023/01/15 04:23:24;;;;;;;23.80;16.77;;;29.70;99.90;;;;;;5021639;28;20049;-67
2023/01/15 04:25:50;;;;;;;12.52;9.63;;;29.50;99.90;;;;;;5023203;28;20508;-67
2023/01/15 04:28:17;;;;;;;13.95;8.73;;;29.30;99.90;;;;;;5022920;28;20026;-67
2023/01/15 04:30:43;;;;;;;11.45;7.53;;;29.10;99.90;;;;;;5021538;28;20108;-67
2023/01/15 04:33:10;;;;;;;9.70;5.95;;;29.00;99.90;;;;;;5023694;28;20021;-67
2023/01/15 04:35:38;;;;;;;6.95;5.82;;;28.90;99.90;;;;;;5023038;28;20018;-68
2023/01/15 04:38:05;;;;;;;19.85;10.48;;;28.90;99.90;;;;;;5021196;28;20018;-67
2023/01/15 04:45:30;;;;;;;20.45;13.02;;;28.80;99.90;;;;;;5021851;28;20018;-65
2023/01/15 04:47:56;;;;;;;12.05;8.73;;;28.70;99.90;;;;;;5022696;28;20033;-66
2023/01/15 04:50:23;;;;;;;11.52;7.82;;;28.60;99.90;;;;;;5023666;28;20021;-67
2023/01/15 04:52:50;;;;;;;14.15;9.85;;;28.60;99.90;;;;;;5021684;28;20372;-68
2023/01/15 04:55:16;;;;;;;12.55;8.32;;;28.70;99.90;;;;;;5025093;28;20421;-66
2023/01/15 04:57:43;;;;;;;9.73;6.70;;;28.80;99.90;;;;;;5027043;28;20018;-69
2023/01/15 05:00:10;;;;;;;12.25;7.68;;;28.80;99.90;;;;;;5021714;28;20025;-67
2023/01/15 05:02:36;;;;;;;10.40;7.57;;;28.80;99.90;;;;;;5020059;28;20021;-66
2023/01/15 05:05:03;;;;;;;10.68;7.57;;;28.80;99.90;;;;;;5022633;28;20083;-67
2023/01/15 05:07:30;;;;;;;10.05;8.65;;;28.90;99.90;;;;;;5025453;28;20089;-64
2023/01/15 05:09:56;;;;;;;12.57;8.73;;;28.90;99.90;;;;;;5027152;28;20029;-67
2023/01/15 05:12:23;;;;;;;15.20;11.10;;;28.90;99.90;;;;;;5025885;28;20407;-67
2023/01/15 05:14:49;;;;;;;16.63;12.18;;;29.00;99.90;;;;;;5025298;28;20022;-68
2023/01/15 05:17:16;;;;;;;20.48;12.98;;;29.00;99.90;;;;;;5027561;28;20340;-67
2023/01/15 05:19:42;;;;;;;19.38;14.50;;;29.00;99.90;;;;;;5025898;28;20068;-67
2023/01/15 05:22:09;;;;;;;17.90;15.05;;;29.00;99.90;;;;;;5025875;28;20021;-65
2023/01/15 05:24:36;;;;;;;18.27;14.13;;;29.10;99.90;;;;;;5026744;28;20463;-67
2023/01/15 05:27:04;;;;;;;17.95;13.93;;;29.20;99.90;;;;;;5029997;28;20018;-67
2023/01/15 05:29:31;;;;;;;16.38;14.30;;;29.20;99.90;;;;;;5027996;28;20100;-67
2023/01/15 05:31:57;;;;;;;16.88;14.52;;;29.30;99.90;;;;;;5023687;28;20018;-66
2023/01/15 05:34:24;;;;;;;17.58;14.43;;;29.40;99.90;;;;;;5016922;28;20030;-67
2023/01/15 05:36:50;;;;;;;17.27;15.00;;;29.60;99.90;;;;;;5019383;28;20029;-66
2023/01/15 05:39:17;;;;;;;20.92;14.68;;;29.70;99.90;;;;;;5023530;28;20040;-66
2023/01/15 05:44:14;;;;;;;17.38;14.00;;;29.90;99.90;;;;;;5027513;28;20439;-66
2023/01/15 05:46:42;;;;;;;14.82;12.20;;;30.00;99.90;;;;;;5024118;28;20076;-65
2023/01/15 05:49:11;;;;;;;16.85;12.75;;;30.10;99.90;;;;;;5026771;28;20024;-66
2023/01/15 05:51:38;;;;;;;16.42;12.88;;;30.20;99.90;;;;;;5030314;28;20398;-66
2023/01/15 05:54:07;;;;;;;15.20;12.23;;;30.30;99.90;;;;;;5015862;28;20080;-66
2023/01/15 05:56:36;;;;;;;15.25;12.63;;;30.40;99.90;;;;;;5021763;28;20040;-67
2023/01/15 05:59:04;;;;;;;17.55;13.02;;;30.50;99.90;;;;;;5025108;28;20030;-67
2023/01/15 06:01:31;;;;;;;18.50;11.85;;;30.50;99.90;;;;;;5025570;28;20025;-68
2023/01/15 06:03:59;;;;;;;23.15;12.57;;;30.50;99.90;;;;;;5035508;28;20021;-67
2023/01/15 06:06:26;;;;;;;40.67;29.23;;;30.60;99.90;;;;;;5017108;28;20022;-68
2023/01/15 06:08:53;;;;;;;16.48;12.30;;;30.60;99.90;;;;;;5029105;28;20029;-68
2023/01/15 06:11:19;;;;;;;13.68;11.27;;;30.70;99.90;;;;;;5024037;28;20079;-67
2023/01/15 06:13:46;;;;;;;12.25;10.13;;;30.70;99.90;;;;;;5024912;28;20020;-69
2023/01/15 06:16:13;;;;;;;13.55;10.20;;;30.70;99.90;;;;;;5025723;28;20069;-68
2023/01/15 06:18:40;;;;;;;10.98;9.50;;;30.80;99.90;;;;;;5023272;28;20467;-69
2023/01/15 06:21:09;;;;;;;13.80;9.82;;;30.80;99.90;;;;;;5026171;28;20025;-70
2023/01/15 06:23:36;;;;;;;11.18;9.77;;;30.90;99.90;;;;;;5035074;28;20130;-67
2023/01/15 06:26:06;;;;;;;13.55;9.68;;;31.00;99.90;;;;;;5033840;28;20031;-67
2023/01/15 06:28:33;;;;;;;12.05;10.48;;;31.00;99.90;;;;;;5028878;28;20022;-67
2023/01/15 06:31:05;;;;;;;34.95;27.95;;;31.20;99.90;;;;;;5023752;28;20030;-67
2023/01/15 06:33:31;;;;;;;21.83;16.98;;;31.30;99.90;;;;;;5024035;28;20097;-67
2023/01/15 06:36:01;;;;;;;20.52;16.35;;;31.40;99.90;;;;;;5023945;28;20142;-66
2023/01/15 06:38:28;;;;;;;13.52;11.15;;;31.50;99.90;;;;;;5025098;28;20091;-67
2023/01/15 06:40:57;;;;;;;13.65;11.60;;;31.50;99.90;;;;;;5029778;28;20038;-67
2023/01/15 06:48:22;;;;;;;12.57;10.43;;;31.60;99.90;;;;;;5028520;28;20025;-67
2023/01/15 06:50:49;;;;;;;16.05;11.60;;;31.70;99.90;;;;;;5024947;28;20051;-68
2023/01/15 06:53:15;;;;;;;16.30;11.60;;;31.80;99.90;;;;;;5024061;28;20033;-67
2023/01/15 06:55:42;;;;;;;15.43;11.20;;;31.80;99.90;;;;;;5023148;28;20025;-68
2023/01/15 06:58:08;;;;;;;14.23;11.43;;;31.80;99.90;;;;;;5024793;28;20013;-68
2023/01/15 07:00:35;;;;;;;17.10;10.82;;;31.90;99.90;;;;;;5023650;28;20022;-69
2023/01/15 07:03:03;;;;;;;15.88;10.57;;;31.90;99.90;;;;;;5022979;28;20164;-69
2023/01/15 07:05:30;;;;;;;12.63;10.77;;;31.90;99.90;;;;;;5022761;28;20010;-67
2023/01/15 07:07:57;;;;;;;12.68;11.25;;;31.90;99.90;;;;;;5023611;28;20021;-68
2023/01/15 07:10:24;;;;;;;13.00;11.70;;;32.00;99.90;;;;;;5024687;28;20100;-66
2023/01/15 07:12:50;;;;;;;12.20;10.90;;;32.10;99.90;;;;;;5022809;28;20033;-67
2023/01/15 07:15:17;;;;;;;16.02;13.23;;;32.10;99.90;;;;;;5023552;28;20064;-67
2023/01/15 07:17:43;;;;;;;22.73;17.38;;;32.10;99.90;;;;;;5027611;28;20030;-68
2023/01/15 07:20:11;;;;;;;17.52;15.30;;;32.00;99.90;;;;;;5025862;28;20041;-69
2023/01/15 07:22:37;;;;;;;21.65;17.45;;;32.00;99.90;;;;;;5024058;28;20112;-67
2023/01/15 07:25:04;;;;;;;20.58;15.27;;;31.90;99.90;;;;;;5022746;28;20034;-68
2023/01/15 07:27:31;;;;;;;17.98;15.45;;;31.80;99.90;;;;;;5024080;28;20467;-67
2023/01/15 07:29:57;;;;;;;20.30;15.95;;;31.80;99.90;;;;;;5033545;28;20075;-68
2023/01/15 07:32:24;;;;;;;16.13;12.88;;;31.80;99.90;;;;;;5034873;28;20033;-67
2023/01/15 07:34:50;;;;;;;15.40;12.75;;;31.70;99.90;;;;;;5034900;28;20033;-67
2023/01/15 07:37:17;;;;;;;16.30;12.35;;;31.60;99.90;;;;;;5035029;28;20036;-67
2023/01/15 07:39:43;;;;;;;17.13;14.10;;;31.60;99.90;;;;;;5028385;28;20041;-66
2023/01/15 07:49:54;;;;;;;23.13;15.50;;;31.60;99.90;;;;;;5028540;28;20088;-67
2023/01/15 07:52:21;;;;;;;20.40;15.57;;;31.60;99.90;;;;;;5025592;28;20038;-67
2023/01/15 07:54:49;;;;;;;20.55;16.45;;;31.50;99.90;;;;;;5034524;28;20022;-68
2023/01/15 07:57:21;;;;;;;23.77;18.48;;;31.50;99.90;;;;;;5034232;28;20148;-67
2023/01/15 07:59:48;;;;;;;;;;;31.50;99.90;;;;;;5034824;28;20470;-67
2023/01/15 08:02:14;;;;;;;11.38;9.57;;;31.50;99.90;;;;;;5034334;28;19909;-68
2023/01/15 08:04:41;;;;;;;14.45;10.85;;;31.40;99.90;;;;;;5034558;28;20028;-67
2023/01/15 08:07:08;;;;;;;14.77;11.60;;;31.40;99.90;;;;;;5032064;28;20509;-67
2023/01/15 08:09:35;;;;;;;10.10;9.10;;;31.40;99.90;;;;;;5020561;28;20083;-69
2023/01/15 08:17:01;;;;;;;13.20;10.38;;;31.30;99.90;;;;;;5021427;28;20018;-66
2023/01/15 08:19:29;;;;;;;14.00;9.57;;;31.20;99.90;;;;;;5024552;28;20490;-69
2023/01/15 08:21:57;;;;;;;13.52;10.00;;;31.20;99.90;;;;;;5024153;28;20109;-68
2023/01/15 08:24:24;;;;;;;13.40;9.88;;;31.10;99.90;;;;;;5020136;28;20117;-69
2023/01/15 08:26:52;;;;;;;14.02;10.77;;;31.20;99.90;;;;;;5025948;28;20424;-68
2023/01/15 08:29:19;;;;;;;19.15;14.43;;;31.20;99.90;;;;;;5021579;28;20022;-67
2023/01/15 08:31:45;;;;;;;26.58;18.80;;;31.20;99.90;;;;;;5022569;28;20017;-66
2023/01/15 08:34:12;;;;;;;21.90;16.15;;;31.10;99.90;;;;;;5023407;28;20036;-67
2023/01/15 08:36:39;;;;;;;24.60;17.23;;;31.10;99.90;;;;;;5025417;28;20032;-68
2023/01/15 08:39:05;;;;;;;25.17;16.52;;;31.10;99.90;;;;;;5021840;28;20037;-69
2023/01/15 08:41:32;;;;;;;20.42;15.60;;;31.00;99.90;;;;;;5026255;28;20410;-68
2023/01/15 08:43:59;;;;;;;19.90;14.95;;;31.00;99.90;;;;;;5025337;28;20018;-68
2023/01/15 08:46:25;;;;;;;21.08;15.10;;;30.90;99.90;;;;;;5026460;28;20092;-67
2023/01/15 08:48:52;;;;;;;27.23;18.40;;;30.90;99.90;;;;;;5024738;28;20266;-69
2023/01/15 08:51:19;;;;;;;26.38;18.65;;;30.90;99.90;;;;;;5022051;28;20064;-69
2023/01/15 08:53:45;;;;;;;23.58;15.25;;;30.70;99.90;;;;;;5016778;28;20364;-68
2023/01/15 08:56:17;;;;;;;18.02;14.02;;;30.80;99.90;;;;;;5018082;28;20021;-70
2023/01/15 08:58:45;;;;;;;20.33;14.05;;;30.70;99.90;;;;;;5022064;28;20382;-68
2023/01/15 09:01:14;;;;;;;20.73;14.50;;;30.70;99.90;;;;;;5018757;28;20034;-71
2023/01/15 09:03:43;;;;;;;24.70;15.57;;;30.70;99.90;;;;;;5025768;28;20034;-68
2023/01/15 09:06:10;;;;;;;20.83;17.13;;;30.80;99.90;;;;;;5031509;28;20475;-68
2023/01/15 09:08:37;;;;;;;22.08;15.30;;;30.80;99.90;;;;;;5029395;28;20022;-66
2023/01/15 09:11:05;;;;;;;23.33;18.25;;;30.70;99.90;;;;;;5021770;28;20089;-68
2023/01/15 09:13:32;;;;;;;20.20;17.83;;;30.70;99.90;;;;;;5019660;28;20030;-67
2023/01/15 09:16:00;;;;;;;21.27;17.77;;;30.80;99.90;;;;;;5018862;28;20026;-68
2023/01/15 09:18:27;;;;;;;24.60;16.30;;;30.70;99.90;;;;;;5016637;28;20402;-65
2023/01/15 09:20:54;;;;;;;25.65;16.85;;;30.80;99.90;;;;;;5016246;28;20034;-66
2023/01/15 09:23:20;;;;;;;29.13;17.77;;;30.70;99.90;;;;;;5015854;28;20427;-67
2023/01/15 09:25:52;;;;;;;22.08;15.88;;;30.70;99.90;;;;;;5015816;28;20014;-64
2023/01/15 09:28:18;;;;;;;24.08;17.52;;;30.70;99.90;;;;;;5020963;28;20037;-65
2023/01/15 09:30:45;;;;;;;27.75;18.85;;;30.70;99.90;;;;;;5024399;28;20068;-64
2023/01/15 09:33:12;;;;;;;21.80;16.70;;;30.70;99.90;;;;;;5025240;28;20036;-67
2023/01/15 09:35:38;;;;;;;28.23;16.73;;;30.70;99.90;;;;;;5026220;28;20011;-67
2023/01/15 09:38:05;;;;;;;26.50;18.35;;;30.70;99.90;;;;;;5024710;28;20026;-67
2023/01/15 09:40:36;;;;;;;32.45;19.65;;;30.60;99.90;;;;;;5020810;28;20036;-67
2023/01/15 09:43:14;;;;;;;36.58;22.85;;;30.60;99.90;;;;;;5024273;28;20459;-66
2023/01/15 09:45:50;;;;;;;39.17;22.67;;;30.60;99.90;;;;;;5024649;28;20088;-66
2023/01/15 09:48:21;;;;;;;33.67;22.48;;;30.50;99.90;;;;;;5031293;28;20029;-66
2023/01/15 09:50:48;;;;;;;;;;;30.40;99.90;;;;;;5036078;28;20017;-66
2023/01/15 09:53:20;;;;;;;34.38;24.20;;;30.40;99.90;;;;;;5031929;28;19910;-66
2023/01/15 09:55:49;;;;;;;33.92;22.88;;;30.40;99.90;;;;;;5025868;28;20034;-67
2023/01/15 09:58:20;;;;;;;28.83;20.20;;;30.40;99.90;;;;;;5025087;28;20025;-67
2023/01/15 10:00:49;;;;;;;39.47;29.73;;;30.30;99.90;;;;;;5026566;28;20021;-68
2023/01/15 10:03:18;;;;;;;73.13;54.72;;;30.30;99.90;;;;;;5025309;28;20356;-67
2023/01/15 10:05:52;;;;;;;132.80;89.70;;;30.40;99.90;;;;;;5019194;28;20022;-67
2023/01/15 10:08:29;;;;;;;128.32;80.88;;;30.30;99.90;;;;;;5023785;28;20018;-67
2023/01/15 10:11:05;;;;;;;149.05;102.72;;;30.30;99.90;;;;;;5024909;28;20156;-68
2023/01/15 10:13:40;;;;;;;127.22;83.65;;;30.30;99.90;;;;;;5024438;28;20054;-65
2023/01/15 10:16:09;;;;;;;98.95;61.35;;;30.30;99.90;;;;;;5023952;28;20076;-66
2023/01/15 10:18:36;;;;;;;89.03;62.00;;;30.30;99.90;;;;;;5025174;28;20048;-66
2023/01/15 10:21:07;;;;;;;205.07;155.57;;;30.30;99.90;;;;;;5023977;28;20030;-67
2023/01/15 10:23:38;;;;;;;190.52;128.07;;;30.30;99.90;;;;;;5020221;28;20387;-66
2023/01/15 10:26:08;;;;;;;103.57;61.70;;;30.30;99.90;;;;;;5030896;28;20458;-66
2023/01/15 10:28:58;;;;;;;123.03;72.95;;;30.20;99.90;;;;;;5023334;28;20030;-67
2023/01/15 10:31:41;;;;;;;133.15;88.53;;;30.20;99.90;;;;;;5020750;28;20033;-67
2023/01/15 10:34:13;;;;;;;95.75;60.75;;;30.10;99.90;;;;;;5028532;28;20030;-67
2023/01/15 10:36:51;;;;;;;124.30;82.18;;;30.10;99.90;;;;;;5025732;28;20386;-65
2023/01/15 10:39:29;;;;;;;264.10;225.15;;;30.10;99.90;;;;;;5025483;28;20037;-67
2023/01/15 10:42:00;;;;;;;136.80;111.63;;;30.10;99.90;;;;;;5027418;28;20084;-68
2023/01/15 10:44:56;;;;;;;96.15;64.97;;;30.10;99.90;;;;;;5029902;28;20351;-67
2023/01/15 10:47:32;;;;;;;79.32;56.17;;;30.00;99.90;;;;;;5018660;28;20042;-65
2023/01/15 10:50:00;;;;;;;105.78;70.05;;;30.10;99.90;;;;;;5024967;28;20386;-66
2023/01/15 10:52:36;;;;;;;135.07;88.60;;;30.00;99.90;;;;;;5024980;28;20104;-66
2023/01/15 10:55:13;;;;;;;158.63;109.55;;;30.00;99.90;;;;;;5023427;28;20041;-63
2023/01/15 10:57:42;;;;;;;148.98;103.30;;;30.00;99.90;;;;;;5023632;28;20032;-64
2023/01/15 11:00:10;;;;;;;95.75;65.82;;;30.00;99.90;;;;;;5026209;28;20068;-66
2023/01/15 11:02:41;;;;;;;65.10;41.53;;;30.00;99.90;;;;;;5020232;28;20112;-65
2023/01/15 11:05:15;;;;;;;48.03;29.95;;;30.00;99.90;;;;;;5020161;28;20017;-66
2023/01/15 11:07:47;;;;;;;47.42;27.98;;;30.00;99.90;;;;;;5019671;28;20018;-68
2023/01/15 11:10:19;;;;;;;46.50;29.13;;;29.90;99.90;;;;;;5021751;28;20080;-66
2023/01/15 11:20:27;;;;;;;47.67;30.55;;;29.90;99.90;;;;;;5021853;28;19909;-66
2023/01/15 11:22:56;;;;;;;46.35;29.38;;;29.90;99.90;;;;;;5022437;28;20119;-67
2023/01/15 11:25:29;;;;;;;45.13;30.50;;;29.80;99.90;;;;;;5021443;28;20025;-67
2023/01/15 11:27:56;;;;;;;69.75;40.97;;;29.80;99.90;;;;;;5021747;28;20024;-70
2023/01/15 11:30:28;;;;;;;90.25;53.35;;;29.80;99.90;;;;;;5022274;28;20024;-68
2023/01/15 11:32:57;;;;;;;93.25;55.90;;;29.80;99.90;;;;;;5021835;28;20026;-67
2023/01/15 11:35:24;;;;;;;97.65;58.50;;;29.70;99.90;;;;;;5025782;28;20044;-70
2023/01/15 11:38:02;;;;;;;101.28;59.17;;;29.70;99.90;;;;;;5025547;28;20026;-70
2023/01/15 11:40:28;;;;;;;87.88;53.85;;;29.70;99.90;;;;;;5020999;28;20061;-68
2023/01/15 11:52:56;;;;;;;47.80;30.05;;;29.50;99.90;;;;;;5022696;28;20029;-67
2023/01/15 11:55:25;;;;;;;45.17;27.80;;;29.50;99.90;;;;;;5023713;28;20113;-67
2023/01/15 11:57:52;;;;;;;36.67;24.83;;;29.50;99.90;;;;;;5022949;28;21410;-66
2023/01/15 12:00:22;;;;;;;31.40;23.73;;;29.50;99.90;;;;;;5019458;28;20029;-66
2023/01/15 12:02:53;;;;;;;65.07;41.28;;;29.50;99.90;;;;;;5024844;28;20030;-67
2023/01/15 12:05:24;;;;;;;91.60;65.03;;;29.50;99.90;;;;;;5025340;28;20535;-63
2023/01/15 12:07:54;;;;;;;69.65;44.90;;;29.50;99.90;;;;;;5028732;28;20060;-65
2023/01/15 12:13:04;;;;;;;172.85;108.45;;;29.50;99.90;;;;;;5025347;28;20026;-63
2023/01/15 12:15:36;;;;;;;208.68;130.32;;;29.50;99.90;;;;;;5023602;28;20068;-64
2023/01/15 12:18:11;;;;;;;180.55;125.60;;;29.50;99.90;;;;;;5022898;28;20504;-64
2023/01/15 12:20:50;;;;;;;124.50;72.35;;;29.50;99.90;;;;;;5021767;28;20029;-65
2023/01/15 12:23:20;;;;;;;147.10;98.43;;;29.50;99.90;;;;;;5024754;28;20017;-64
2023/01/15 12:25:50;;;;;;;131.20;80.70;;;29.50;99.90;;;;;;5030225;28;20525;-65
2023/01/15 12:28:26;;;;;;;123.70;83.57;;;29.50;99.90;;;;;;5020694;28;20033;-65
2023/01/15 12:31:12;;;;;;;56.92;36.70;;;29.50;99.90;;;;;;5019797;28;20105;-66
2023/01/15 12:33:44;;;;;;;30.15;20.25;;;29.50;99.90;;;;;;5022325;28;20038;-65
2023/01/15 12:36:11;;;;;;;32.05;20.17;;;29.40;99.90;;;;;;5019972;28;20375;-70
2023/01/15 12:38:41;;;;;;;38.25;29.98;;;29.40;99.90;;;;;;5026132;28;20400;-65
2023/01/15 12:41:13;;;;;;;38.67;29.85;;;29.40;99.90;;;;;;5019324;28;20030;-64
2023/01/15 12:46:22;;;;;;;80.43;58.67;;;29.40;99.90;;;;;;5023870;28;20014;-65
2023/01/15 12:48:53;;;;;;;62.65;52.53;;;29.30;99.90;;;;;;5021676;28;20026;-65
2023/01/15 12:51:27;;;;;;;38.13;24.42;;;29.40;99.90;;;;;;5017891;28;20037;-65
2023/01/15 12:54:02;;;;;;;25.58;18.38;;;29.30;99.90;;;;;;5026215;28;20486;-65
2023/01/15 12:56:36;;;;;;;30.23;17.63;;;29.20;99.90;;;;;;5022758;28;20033;-64
2023/01/15 12:59:05;;;;;;;37.08;18.50;;;29.20;99.90;;;;;;5021291;28;20026;-65
2023/01/15 13:01:34;;;;;;;47.33;36.30;;;29.10;99.90;;;;;;5023498;28;20026;-65
2023/01/15 13:04:04;;;;;;;36.25;27.98;;;29.10;99.90;;;;;;5023970;28;20036;-66
2023/01/15 13:06:33;;;;;;;80.40;55.42;;;29.10;99.90;;;;;;5025392;28;20557;-65
2023/01/15 13:09:05;;;;;;;50.95;38.10;;;29.10;99.90;;;;;;5019393;28;20040;-65
2023/01/15 13:11:32;;;;;;;28.92;21.20;;;29.10;99.90;;;;;;5019826;28;20022;-65
2023/01/15 13:13:58;;;;;;;50.75;38.15;;;29.10;99.90;;;;;;5022822;28;20430;-66
2023/01/15 13:16:27;;;;;;;54.17;39.35;;;29.10;99.90;;;;;;5015953;28;20026;-66
2023/01/15 13:18:59;;;;;;;34.45;22.17;;;29.10;99.90;;;;;;5022824;28;20038;-66
2023/01/15 13:21:30;;;;;;;33.22;21.50;;;29.10;99.90;;;;;;5022586;28;20025;-67
2023/01/15 13:24:02;;;;;;;31.80;19.87;;;29.10;99.90;;;;;;5024450;28;20037;-67
2023/01/15 13:26:40;;;;;;;34.67;24.15;;;29.10;99.90;;;;;;5022276;28;20026;-65
2023/01/15 13:29:17;;;;;;;34.67;23.48;;;29.10;99.90;;;;;;5027600;28;20048;-65
2023/01/15 13:31:51;;;;;;;63.92;43.13;;;29.10;99.90;;;;;;5028916;28;20040;-66
2023/01/15 13:34:28;;;;;;;48.65;30.83;;;29.10;99.90;;;;;;5027845;28;20108;-67
2023/01/15 13:37:02;;;;;;;72.85;55.55;;;29.10;99.90;;;;;;5027135;28;20064;-64